Tsu, Japan
Current Conditions -  °F | °C
As of 2:00 AM on Sunday 23 Nov 2014 (Local Time) from RJGG Reporting Station
Few Clouds Few Clouds  
Wind Chill: 52°   Ceiling: Unl
Heat Index: 52°   Visibility: 6mi
Dew Point: 46°   Wind: 6mph
Humidity: 82%   Direction: 350°N
Pressure: 30.15"   Gusts: NA
Location:  34.72°N, 136.51°E
Report Text: RJGG 221700Z 35005KT 9999 FEW030 11/08 Q1021 NOSIG
Loading
Personal Weather Stations






























Interactive Weather Map New forecast layout! Learn more

10-Day Weather Forecast

Advertisements
Track Severe Weather on mobile